createdAt,value
2018-11-02T00:01:25.763Z,88.34
2018-11-02T00:03:56.226Z,89.05
2018-11-02T00:06:25.300Z,90.20
2018-11-02T00:09:10.049Z,92.11
2018-11-02T00:11:39.125Z,89.81
2018-11-02T00:14:09.589Z,90.48
2018-11-02T00:16:38.670Z,90.69
2018-11-02T00:19:07.796Z,90.28
2018-11-02T00:21:36.877Z,89.45
2018-11-02T00:24:05.930Z,91.57
2018-11-02T00:26:35.070Z,90.95
2018-11-02T00:29:04.170Z,89.36
2018-11-02T00:31:33.272Z,90.44
2018-11-02T00:34:02.362Z,90.71
2018-11-02T00:36:31.862Z,90.93
2018-11-02T00:39:00.931Z,90.74
2018-11-02T00:41:30.004Z,90.50
2018-11-02T00:43:59.184Z,91.04
2018-11-02T00:46:28.195Z,89.66
2018-11-02T00:48:57.291Z,90.60
2018-11-02T00:51:27.019Z,90.24
2018-11-02T00:53:56.119Z,91.29
2018-11-02T00:56:27.143Z,90.94
2018-11-02T00:58:56.324Z,88.95
2018-11-02T01:01:25.392Z,90.50
2018-11-02T01:03:54.566Z,89.57
2018-11-02T01:06:23.709Z,89.37
2018-11-02T01:08:52.855Z,89.21
2018-11-02T01:11:21.967Z,89.42
2018-11-02T01:13:51.097Z,90.29
2018-11-02T01:16:20.152Z,90.14
2018-11-02T01:18:49.270Z,91.14
2018-11-02T01:21:18.637Z,89.81
2018-11-02T01:23:47.749Z,89.63
2018-11-02T01:26:16.873Z,90.06
2018-11-02T01:28:46.016Z,90.75
2018-11-02T01:31:15.105Z,90.20
2018-11-02T01:33:44.168Z,91.96
2018-11-02T01:36:13.227Z,91.82
2018-11-02T01:38:42.267Z,92.41
2018-11-02T01:41:11.345Z,91.83
2018-11-02T01:43:40.409Z,92.63
2018-11-02T01:46:11.010Z,93.13
2018-11-02T01:48:40.085Z,92.00
2018-11-02T01:51:09.140Z,92.03
2018-11-02T01:53:38.241Z,92.16
2018-11-02T01:56:07.315Z,90.41
2018-11-02T01:58:36.412Z,92.94
2018-11-02T02:01:05.685Z,90.17
2018-11-02T02:03:34.755Z,89.28
2018-11-02T02:06:03.814Z,89.38
2018-11-02T02:08:33.204Z,88.37
2018-11-02T02:11:02.261Z,90.59
2018-11-02T02:13:31.299Z,89.57
2018-11-02T02:16:00.758Z,90.00
2018-11-02T02:18:30.613Z,93.73
2018-11-02T02:20:59.630Z,93.02
2018-11-02T02:23:28.721Z,89.96
2018-11-02T02:25:57.794Z,89.80
2018-11-02T02:28:26.869Z,89.89
2018-11-02T02:30:55.899Z,90.91
2018-11-02T02:33:24.938Z,89.57
2018-11-02T02:35:53.990Z,89.13
2018-11-02T02:38:23.002Z,90.55
2018-11-02T02:40:52.036Z,90.10
2018-11-02T02:43:21.085Z,91.25
2018-11-02T02:45:50.122Z,89.10
2018-11-02T02:48:19.187Z,87.96
2018-11-02T02:50:49.272Z,89.70
2018-11-02T02:53:18.320Z,89.45
2018-11-02T02:55:47.405Z,87.85
2018-11-02T02:58:16.446Z,89.45
2018-11-02T03:00:45.523Z,88.96
2018-11-02T03:03:14.630Z,88.87
2018-11-02T03:05:43.694Z,88.41
2018-11-02T03:08:12.726Z,91.04
2018-11-02T03:10:41.882Z,92.95
2018-11-02T03:13:12.092Z,89.62
2018-11-02T03:15:41.139Z,90.40
2018-11-02T03:18:10.228Z,91.41
2018-11-02T03:20:39.270Z,90.73
2018-11-02T03:23:08.342Z,89.64
2018-11-02T03:25:37.445Z,89.83
2018-11-02T03:28:06.450Z,89.09
2018-11-02T03:30:35.506Z,89.84
2018-11-02T03:33:04.566Z,88.93
2018-11-02T03:35:33.663Z,89.63
2018-11-02T03:38:02.723Z,88.38
2018-11-02T03:40:31.736Z,88.48
2018-11-02T03:43:00.767Z,90.05
2018-11-02T03:45:29.829Z,91.03
2018-11-02T03:47:58.915Z,91.58
2018-11-02T03:50:28.181Z,92.52
2018-11-02T03:52:57.275Z,91.69
2018-11-02T03:55:26.309Z,89.65
2018-11-02T03:57:55.351Z,91.08
2018-11-02T04:00:24.882Z,90.81
2018-11-02T04:02:53.965Z,89.29
2018-11-02T04:05:22.976Z,91.32
2018-11-02T04:07:52.028Z,91.26
2018-11-02T04:10:21.048Z,91.79
2018-11-02T04:12:50.090Z,90.72
2018-11-02T04:15:19.143Z,89.96
2018-11-02T04:17:48.192Z,89.80
2018-11-02T04:20:17.269Z,89.51
2018-11-02T04:22:46.333Z,90.17
2018-11-02T04:25:15.427Z,91.79
2018-11-02T04:27:44.459Z,90.80
2018-11-02T04:30:13.519Z,92.22
2018-11-02T04:32:42.579Z,91.18
2018-11-02T04:35:11.635Z,92.89
2018-11-02T04:37:40.666Z,91.35
2018-11-02T04:40:09.724Z,92.89
2018-11-02T04:42:38.749Z,90.89
2018-11-02T04:45:07.783Z,90.17
2018-11-02T04:47:36.869Z,91.37
2018-11-02T04:50:07.021Z,91.30
2018-11-02T04:52:36.271Z,90.92
2018-11-02T04:55:06.319Z,90.32
2018-11-02T04:57:35.330Z,91.09
2018-11-02T05:00:05.622Z,91.11
2018-11-02T05:02:34.687Z,91.21
2018-11-02T05:05:03.781Z,91.55
2018-11-02T05:07:32.830Z,89.88
2018-11-02T05:10:02.039Z,90.44
2018-11-02T05:12:30.946Z,90.71
2018-11-02T05:15:00.038Z,91.16
2018-11-02T05:17:30.129Z,90.18
2018-11-02T05:19:59.181Z,90.41
2018-11-02T05:22:28.199Z,91.77
2018-11-02T05:24:57.259Z,89.57
2018-11-02T05:27:26.320Z,90.89
2018-11-02T05:29:55.390Z,89.71
2018-11-02T05:32:24.433Z,89.45
2018-11-02T05:34:53.789Z,90.68
2018-11-02T05:37:22.841Z,89.93
2018-11-02T05:39:52.770Z,89.68
2018-11-02T05:42:21.818Z,91.02
2018-11-02T05:44:50.921Z,88.96
2018-11-02T05:47:20.072Z,90.14
2018-11-02T05:49:49.062Z,91.00
2018-11-02T05:52:18.120Z,90.42
2018-11-02T05:54:47.154Z,90.66
2018-11-02T05:57:16.199Z,91.18
2018-11-02T05:59:45.235Z,90.87
2018-11-02T06:02:14.302Z,91.75
2018-11-02T06:04:43.312Z,92.25
2018-11-02T06:07:12.351Z,91.24
2018-11-02T06:09:41.377Z,90.33
2018-11-02T06:12:10.419Z,91.15
2018-11-02T06:14:39.467Z,91.79
2018-11-02T06:17:08.516Z,91.16
2018-11-02T06:19:37.589Z,90.60
2018-11-02T06:22:06.630Z,91.53
2018-11-02T06:24:35.729Z,91.23
2018-11-02T06:27:04.768Z,91.29
2018-11-02T06:29:33.807Z,91.27
2018-11-02T06:32:02.838Z,90.22
2018-11-02T06:34:31.893Z,90.32
2018-11-02T06:37:00.926Z,90.49
2018-11-02T06:39:29.950Z,90.41
2018-11-02T06:42:00.035Z,90.85
2018-11-02T06:44:29.109Z,90.61
2018-11-02T06:46:58.111Z,90.62
2018-11-02T06:49:27.173Z,90.83
2018-11-02T06:51:56.178Z,91.26
2018-11-02T06:54:25.194Z,91.83
2018-11-02T06:56:54.246Z,90.90
2018-11-02T06:59:23.336Z,89.42
2018-11-02T07:01:52.320Z,90.08
2018-11-02T07:04:21.389Z,89.68
2018-11-02T07:06:50.442Z,90.06
2018-11-02T07:09:19.463Z,90.58
2018-11-02T07:11:48.514Z,89.26
2018-11-02T07:14:17.534Z,87.38
2018-11-02T07:16:46.574Z,87.24
2018-11-02T07:19:15.603Z,88.42
2018-11-02T07:21:44.658Z,87.45
2018-11-02T07:24:13.714Z,87.50
2018-11-02T07:26:43.158Z,87.66
2018-11-02T07:29:12.238Z,87.17
2018-11-02T07:31:41.301Z,87.52
2018-11-02T07:34:10.674Z,87.96
2018-11-02T07:36:39.764Z,87.13
2018-11-02T07:39:09.782Z,87.57
2018-11-02T07:41:38.847Z,87.21
2018-11-02T07:44:08.345Z,87.43
2018-11-02T07:46:37.758Z,87.31
2018-11-02T07:49:06.826Z,87.31
2018-11-02T07:51:36.001Z,87.57
2018-11-02T07:54:05.205Z,87.48
2018-11-02T07:56:34.226Z,87.85
2018-11-02T07:59:03.262Z,87.34
2018-11-02T08:01:33.408Z,87.65
2018-11-02T08:04:03.480Z,87.83
2018-11-02T08:06:33.008Z,87.89
2018-11-02T08:09:02.073Z,87.86
2018-11-02T08:11:31.203Z,87.64
2018-11-02T08:14:00.163Z,87.50
2018-11-02T08:16:29.191Z,88.19
2018-11-02T08:18:58.259Z,87.35
2018-11-02T08:21:27.314Z,86.92
2018-11-02T08:23:56.380Z,87.82
2018-11-02T08:26:25.799Z,88.17
2018-11-02T08:28:54.921Z,89.39
2018-11-02T08:31:23.968Z,88.22
2018-11-02T08:33:53.001Z,87.81
2018-11-02T08:36:22.020Z,89.38
2018-11-02T08:38:51.685Z,88.04
2018-11-02T08:41:20.732Z,86.96
2018-11-02T08:43:49.784Z,87.90
2018-11-02T08:46:18.844Z,87.83
2018-11-02T08:48:47.823Z,87.15
2018-11-02T08:51:16.918Z,87.05
2018-11-02T08:53:45.972Z,87.06
2018-11-02T08:56:15.050Z,86.36
2018-11-02T08:58:44.289Z,86.35
2018-11-02T09:01:13.157Z,85.77
2018-11-02T09:03:43.194Z,85.34
2018-11-02T09:06:12.253Z,85.26
2018-11-02T09:08:41.294Z,86.21
2018-11-02T09:11:10.595Z,85.39
2018-11-02T09:13:39.727Z,85.45
2018-11-02T09:16:08.787Z,84.96
2018-11-02T09:18:37.926Z,84.19
2018-11-02T09:21:07.035Z,83.90
2018-11-02T09:23:36.212Z,83.88
2018-11-02T09:26:05.580Z,84.50
2018-11-02T09:28:34.683Z,82.12
2018-11-02T09:31:03.779Z,80.37
2018-11-02T09:33:32.963Z,81.97
2018-11-02T09:36:02.052Z,81.80
2018-11-02T09:38:31.143Z,81.93
2018-11-02T09:41:00.219Z,77.62
2018-11-02T09:43:29.350Z,78.52
2018-11-02T09:45:58.439Z,79.28
2018-11-02T09:48:27.511Z,72.38
2018-11-02T09:50:56.635Z,68.86
2018-11-02T09:53:25.746Z,77.98
2018-11-02T09:55:56.343Z,74.34
2018-11-02T09:58:25.642Z,73.66
2018-11-02T10:00:55.099Z,69.96
2018-11-02T10:03:23.979Z,71.34
2018-11-02T10:05:53.131Z,75.95
2018-11-02T10:08:22.313Z,72.63
2018-11-02T10:10:51.470Z,74.45
2018-11-02T10:13:20.691Z,72.42
2018-11-02T10:15:49.821Z,74.41
2018-11-02T10:18:20.480Z,76.08
2018-11-02T10:20:50.639Z,75.98
2018-11-02T10:23:19.906Z,68.94
2018-11-02T10:25:49.079Z,71.63
2018-11-02T10:28:19.090Z,67.55
2018-11-02T10:30:48.223Z,71.67
2018-11-02T10:33:17.431Z,70.42
2018-11-02T10:35:47.464Z,71.17
2018-11-02T10:38:16.685Z,74.14
2018-11-02T10:40:48.548Z,69.69
2018-11-02T10:43:18.530Z,73.45
2018-11-02T10:45:48.730Z,67.66
2018-11-02T10:48:26.546Z,65.71
2018-11-02T10:50:56.431Z,66.95
2018-11-02T10:53:25.920Z,70.50
2018-11-02T10:55:55.958Z,67.80
2018-11-02T10:58:26.049Z,67.17
2018-11-02T11:01:00.773Z,67.16
2018-11-02T11:03:29.904Z,67.36
2018-11-02T11:05:59.179Z,71.93
2018-11-02T11:08:29.210Z,68.29
2018-11-02T11:11:00.955Z,69.51
2018-11-02T11:13:30.607Z,70.77
2018-11-02T11:16:00.087Z,69.89
2018-11-02T11:18:40.832Z,67.30
2018-11-02T11:21:10.813Z,70.24
2018-11-02T11:23:39.990Z,66.56
2018-11-02T11:26:09.389Z,66.08
2018-11-02T11:28:40.680Z,64.36
2018-11-02T11:31:09.928Z,67.11
2018-11-02T11:33:39.170Z,68.24
2018-11-02T11:36:08.389Z,66.53
2018-11-02T11:38:37.876Z,70.16
2018-11-02T11:41:07.978Z,69.41
2018-11-02T11:43:37.273Z,68.16
2018-11-02T11:46:06.724Z,63.90
2018-11-02T11:48:36.116Z,65.49
2018-11-02T11:51:06.719Z,69.01
2018-11-02T11:53:36.058Z,67.92
2018-11-02T11:56:06.221Z,70.36
2018-11-02T11:58:35.582Z,70.55
2018-11-02T12:01:04.947Z,69.10
2018-11-02T12:03:34.355Z,70.07
2018-11-02T12:06:03.636Z,69.34
2018-11-02T12:11:13.007Z,69.72
2018-11-02T12:13:42.276Z,69.88
2018-11-02T12:16:11.596Z,68.54
2018-11-02T12:18:41.476Z,68.78
2018-11-02T12:21:10.962Z,66.91
2018-11-02T12:23:40.980Z,66.46
2018-11-02T12:26:10.294Z,67.00
2018-11-02T12:31:45.781Z,59.17
2018-11-02T12:34:15.281Z,62.93
2018-11-02T12:36:44.926Z,61.04
2018-11-02T12:39:36.277Z,62.48
2018-11-02T12:42:15.202Z,59.25
2018-11-02T12:44:46.578Z,61.77
2018-11-02T12:47:16.654Z,61.77
2018-11-02T12:49:54.100Z,61.06
2018-11-02T12:52:36.244Z,58.00
2018-11-02T12:55:27.397Z,59.80
2018-11-02T12:57:58.857Z,55.82
2018-11-02T13:00:29.709Z,61.12
2018-11-02T13:02:58.948Z,60.20
2018-11-02T13:05:57.772Z,60.30
2018-11-02T13:08:29.453Z,55.24
2018-11-02T13:11:07.271Z,55.90
2018-11-02T13:13:36.624Z,59.11
2018-11-02T13:16:10.741Z,56.82
2018-11-02T13:18:42.136Z,58.71
2018-11-02T13:21:13.342Z,57.05
2018-11-02T13:23:52.763Z,55.83
2018-11-02T13:26:23.369Z,53.94
2018-11-02T13:29:00.903Z,58.16
2018-11-02T13:31:30.255Z,56.36
2018-11-02T13:33:59.368Z,60.78
2018-11-02T13:36:28.766Z,55.10
2018-11-02T13:38:58.480Z,58.77
2018-11-02T13:41:27.771Z,60.77
2018-11-02T13:43:57.032Z,60.55
2018-11-02T13:46:28.078Z,58.83
2018-11-02T13:48:59.581Z,58.93
2018-11-02T13:51:32.920Z,55.98
2018-11-02T13:54:02.062Z,60.67
2018-11-02T13:56:32.521Z,57.58
2018-11-02T13:59:04.106Z,62.02
2018-11-02T14:01:38.872Z,60.27
2018-11-02T14:04:08.241Z,56.12
2018-11-02T14:06:37.465Z,61.27
2018-11-02T14:09:09.603Z,61.23
2018-11-02T14:11:41.444Z,62.20
2018-11-02T14:14:10.563Z,61.42
2018-11-02T14:16:40.744Z,60.02
2018-11-02T14:19:15.064Z,62.56
2018-11-02T14:21:47.716Z,62.10
2018-11-02T14:24:17.049Z,60.74
2018-11-02T14:26:46.311Z,61.96
2018-11-02T14:29:33.397Z,61.29
2018-11-02T14:32:02.505Z,63.40
2018-11-02T14:34:31.795Z,61.94
2018-11-02T14:37:03.204Z,62.01
2018-11-02T14:39:37.680Z,62.15
2018-11-02T14:42:07.364Z,59.93
2018-11-02T14:44:37.668Z,60.09
2018-11-02T14:47:07.175Z,61.50
2018-11-02T14:49:44.949Z,57.61
2018-11-02T14:52:16.586Z,59.55
2018-11-02T14:54:47.065Z,61.98
2018-11-02T14:57:23.318Z,62.51
2018-11-02T15:00:02.401Z,57.07
2018-11-02T15:02:47.421Z,60.14
2018-11-02T15:08:51.736Z,61.99
2018-11-02T15:11:21.184Z,60.12
2018-11-02T15:13:53.907Z,62.06
2018-11-02T15:16:32.763Z,61.02
2018-11-02T15:19:02.328Z,60.94
2018-11-02T15:21:31.483Z,63.54
2018-11-02T15:24:03.735Z,63.54
2018-11-02T15:26:35.045Z,60.19
2018-11-02T15:29:04.071Z,61.60
2018-11-02T15:31:34.205Z,63.67
2018-11-02T15:34:03.974Z,63.31
2018-11-02T15:36:38.259Z,62.55
2018-11-02T15:39:33.811Z,63.15
2018-11-02T15:50:12.664Z,63.96
2018-11-02T15:53:06.537Z,64.41
2018-11-02T15:57:01.635Z,64.73
2018-11-02T16:04:27.154Z,65.12
2018-11-02T16:06:58.759Z,64.97
2018-11-02T16:09:28.581Z,65.53
2018-11-02T16:11:59.256Z,65.30
2018-11-02T16:14:29.387Z,64.96
2018-11-02T16:16:59.424Z,65.47
2018-11-02T16:19:28.556Z,65.59
2018-11-02T16:21:57.624Z,66.01
2018-11-02T16:24:26.735Z,65.75
2018-11-02T16:26:56.677Z,66.12
2018-11-02T16:29:25.807Z,66.11
2018-11-02T16:31:55.866Z,66.18
2018-11-02T16:34:25.664Z,66.18
2018-11-02T16:36:55.233Z,66.78
2018-11-02T16:39:24.491Z,66.74
2018-11-02T16:41:53.635Z,66.40
2018-11-02T16:44:22.956Z,66.48
2018-11-02T16:46:51.990Z,67.00
2018-11-02T16:49:21.123Z,66.96
2018-11-02T16:51:50.266Z,67.08
2018-11-02T16:54:20.195Z,66.94
2018-11-02T16:56:54.558Z,66.91
2018-11-02T16:59:23.761Z,67.36
2018-11-02T17:01:56.693Z,67.93
2018-11-02T17:04:27.232Z,67.53
2018-11-02T17:06:57.465Z,67.17
2018-11-02T17:09:26.750Z,67.45
2018-11-02T17:11:59.192Z,67.51
2018-11-02T17:17:23.750Z,67.35
2018-11-02T17:19:53.107Z,67.71
2018-11-02T17:22:22.240Z,67.75
2018-11-02T17:24:52.198Z,67.84
2018-11-02T17:27:23.234Z,68.30
2018-11-02T17:29:53.023Z,68.83
2018-11-02T17:32:22.583Z,68.44
2018-11-02T17:34:51.669Z,68.28
2018-11-02T17:37:20.916Z,68.15
2018-11-02T17:39:49.978Z,68.07
2018-11-02T17:42:19.182Z,68.22
2018-11-02T17:44:50.485Z,68.26
2018-11-02T17:47:20.068Z,68.18
2018-11-02T17:49:49.130Z,68.39
2018-11-02T17:52:18.286Z,68.68
2018-11-02T17:54:47.449Z,68.62
2018-11-02T17:57:17.112Z,68.42
2018-11-02T17:59:46.132Z,68.87
2018-11-02T18:02:15.976Z,68.72
2018-11-02T18:04:45.093Z,69.25
2018-11-02T18:07:14.182Z,68.84
2018-11-02T18:09:44.182Z,68.85
2018-11-02T18:12:13.242Z,69.27
2018-11-02T18:14:42.300Z,68.67
2018-11-02T18:17:11.496Z,69.57
2018-11-02T18:19:40.798Z,69.91
2018-11-02T18:22:09.938Z,69.69
2018-11-02T18:24:41.314Z,69.50
2018-11-02T18:27:12.831Z,69.75
2018-11-02T18:29:42.427Z,69.29
2018-11-02T18:32:13.095Z,69.04
2018-11-02T18:34:42.280Z,69.45
2018-11-02T18:37:11.335Z,69.06
2018-11-02T18:39:40.359Z,70.02
2018-11-02T18:42:11.006Z,69.88
2018-11-02T18:44:41.914Z,70.00
2018-11-02T18:47:14.911Z,70.18
2018-11-02T18:49:44.208Z,70.14
2018-11-02T18:52:14.230Z,70.33
2018-11-02T18:54:43.313Z,70.04
2018-11-02T18:57:13.420Z,70.29
2018-11-02T18:59:42.484Z,70.49
2018-11-02T19:02:11.527Z,70.66
2018-11-02T19:04:40.567Z,70.05
2018-11-02T19:07:09.631Z,70.79
2018-11-02T19:09:38.678Z,69.98
2018-11-02T19:12:07.773Z,70.58
2018-11-02T19:14:36.987Z,70.81
2018-11-02T19:17:06.164Z,70.23
2018-11-02T19:19:35.365Z,70.23
2018-11-02T19:22:04.365Z,70.67
2018-11-02T19:24:33.404Z,69.41
2018-11-02T19:27:02.529Z,70.32
2018-11-02T19:29:31.518Z,71.43
2018-11-02T19:32:00.627Z,71.55
2018-11-02T19:34:29.823Z,71.68
2018-11-02T19:36:58.834Z,70.82
2018-11-02T19:39:27.883Z,70.82
2018-11-02T19:41:57.227Z,71.17
2018-11-02T19:44:26.891Z,71.44
2018-11-02T19:46:55.863Z,70.67
2018-11-02T19:49:26.502Z,71.28
2018-11-02T19:51:55.942Z,70.94
2018-11-02T19:54:25.015Z,70.46
2018-11-02T19:56:55.727Z,70.10
2018-11-02T19:59:24.775Z,70.60
2018-11-02T20:01:54.618Z,71.19
2018-11-02T20:04:24.317Z,72.30
2018-11-02T20:06:53.377Z,70.98
2018-11-02T20:09:22.467Z,72.17
2018-11-02T20:11:51.471Z,71.29
2018-11-02T20:14:20.550Z,71.84
2018-11-02T20:16:49.822Z,71.63
2018-11-02T20:19:19.003Z,71.46
2018-11-02T20:21:47.948Z,72.21
2018-11-02T20:24:17.066Z,72.01
2018-11-02T20:26:46.094Z,70.68
2018-11-02T20:29:15.307Z,71.57
2018-11-02T20:31:44.399Z,71.64
2018-11-02T20:34:13.399Z,71.60
2018-11-02T20:36:42.452Z,71.80
2018-11-02T20:39:12.833Z,71.55
2018-11-02T20:41:41.799Z,71.49
2018-11-02T20:44:10.932Z,72.06
2018-11-02T20:46:40.270Z,73.78
2018-11-02T20:49:09.316Z,72.62
2018-11-02T20:51:39.705Z,72.51
2018-11-02T20:54:08.769Z,72.12
2018-11-02T20:56:37.867Z,71.34
2018-11-02T20:59:06.897Z,71.99
2018-11-02T21:01:37.126Z,72.04
2018-11-02T21:04:06.343Z,71.54
2018-11-02T21:06:35.398Z,72.11
2018-11-02T21:09:06.364Z,71.92
2018-11-02T21:11:35.220Z,72.00
2018-11-02T21:14:04.279Z,71.93
2018-11-02T21:16:33.256Z,72.44
2018-11-02T21:19:02.359Z,72.21
2018-11-02T21:21:31.628Z,72.48
2018-11-02T21:24:03.122Z,72.82
2018-11-02T21:26:32.173Z,71.71
2018-11-02T21:29:01.246Z,71.99
2018-11-02T21:31:30.291Z,71.48
2018-11-02T21:34:00.255Z,71.45
2018-11-02T21:36:29.314Z,72.09
2018-11-02T21:38:58.370Z,72.27
2018-11-02T21:41:27.438Z,72.41
2018-11-02T21:43:56.473Z,71.46
2018-11-02T21:46:25.565Z,72.35
2018-11-02T21:48:54.673Z,71.50
2018-11-02T21:51:23.703Z,72.52
2018-11-02T21:53:52.741Z,72.23
2018-11-02T21:56:21.799Z,72.33
2018-11-02T21:58:50.908Z,72.75
2018-11-02T22:01:19.958Z,72.96
2018-11-02T22:03:48.982Z,72.65
2018-11-02T22:06:18.973Z,72.61
2018-11-02T22:08:47.964Z,71.53
2018-11-02T22:11:17.284Z,73.15
2018-11-02T22:13:46.302Z,72.18
2018-11-02T22:16:15.434Z,73.01
2018-11-02T22:18:44.563Z,72.73
2018-11-02T22:21:13.656Z,73.34
2018-11-02T22:23:43.602Z,73.54
2018-11-02T22:26:12.887Z,72.84
2018-11-02T22:28:41.977Z,72.70
2018-11-02T22:31:11.026Z,72.04
2018-11-02T22:33:40.040Z,72.29
2018-11-02T22:36:09.225Z,72.82
2018-11-02T22:38:38.273Z,72.25
2018-11-02T22:41:08.339Z,72.85
2018-11-02T22:43:37.386Z,73.15
2018-11-02T22:46:07.080Z,72.88
2018-11-02T22:48:36.197Z,71.93
2018-11-02T22:51:05.313Z,72.12
2018-11-02T22:53:34.346Z,72.38
2018-11-02T22:56:03.391Z,72.50
2018-11-02T22:58:32.531Z,72.80
2018-11-02T23:01:06.878Z,73.45
2018-11-02T23:03:35.920Z,72.82
2018-11-02T23:06:06.566Z,72.01
2018-11-02T23:08:35.634Z,72.90
2018-11-02T23:11:04.737Z,73.30
2018-11-02T23:13:33.977Z,73.10
2018-11-02T23:16:03.967Z,73.04
2018-11-02T23:18:33.112Z,73.81
2018-11-02T23:21:02.139Z,73.81
2018-11-02T23:23:31.282Z,73.24
2018-11-02T23:26:00.314Z,74.42
2018-11-02T23:28:29.965Z,74.08
2018-11-02T23:30:58.999Z,72.81
2018-11-02T23:33:28.066Z,73.29
2018-11-02T23:35:57.334Z,76.74
2018-11-02T23:38:26.374Z,75.28
2018-11-02T23:40:55.452Z,74.10
2018-11-02T23:43:24.497Z,75.22
2018-11-02T23:45:53.518Z,74.34
2018-11-02T23:48:23.569Z,74.36
2018-11-02T23:50:52.614Z,75.59
2018-11-02T23:53:21.668Z,74.24
2018-11-02T23:55:50.709Z,74.40
2018-11-02T23:58:19.824Z,76.92
